Time;durP1;ratioP1;P1;durP2;ratioP2;P2;SDS_P1;SDS_P2;PMS_P1;PMS_P2;Temp;Humidity;BMP_temperature;BMP_pressure;BME280_temperature;BME280_humidity;BME280_pressure;Samples;Min_cycle;Max_cycle;Signal;HPM_P1;HPM_P2
2023/07/02 00:01:39;;;;;;;9.28;3.95;;;;;;;20.31;89.33;99406.35;5096853;56;1136785;-77
2023/07/02 00:12:01;;;;;;;9.03;3.75;;;;;;;20.26;90.62;99399.43;5249098;55;46723;-73
2023/07/02 00:17:07;;;;;;;7.90;3.86;;;;;;;20.19;90.39;99406.65;5007824;57;1132393;-75
2023/07/02 00:22:12;;;;;;;17.20;4.22;;;;;;;20.18;90.91;99412.23;5022634;57;1136457;-74
2023/07/02 00:27:18;;;;;;;8.10;3.72;;;;;;;20.14;91.67;99403.79;5026201;57;1138777;-74
2023/07/02 00:32:24;;;;;;;3.47;2.90;;;;;;;20.14;91.67;99403.79;5007009;57;1136608;-75
2023/07/02 00:37:29;;;;;;;8.88;3.12;;;;;;;20.11;92.31;99400.69;5066239;55;1136815;-75
2023/07/02 00:42:35;;;;;;;6.76;3.34;;;;;;;20.02;92.77;99399.53;5139685;56;1136578;-75
2023/07/02 00:47:41;;;;;;;8.00;3.52;;;;;;;19.98;93.44;99402.86;5122258;56;1136552;-71
2023/07/02 00:52:47;;;;;;;4.53;2.70;;;;;;;19.93;94.19;99397.28;4986538;57;1136591;-74
2023/07/02 00:57:52;;;;;;;3.35;3.10;;;;;;;19.87;94.88;99393.55;5074155;56;1136773;-70
2023/07/02 01:02:58;;;;;;;4.22;3.15;;;;;;;19.81;95.38;99393.05;5053680;56;1136713;-73
2023/07/02 01:08:06;;;;;;;3.62;2.85;;;;;;;19.78;95.61;99385.92;5033084;56;1136875;-70
2023/07/02 01:13:15;;;;;;;5.95;3.37;;;;;;;19.81;95.76;99368.91;5096908;56;1136686;-71
2023/07/02 01:18:22;;;;;;;5.28;3.10;;;;;;;19.85;95.74;99366.13;4961640;57;1136645;-72
2023/07/02 01:23:28;;;;;;;11.50;3.70;;;;;;;19.90;96.01;99368.16;5045234;56;1136782;-74
2023/07/02 01:28:38;;;;;;;7.47;3.70;;;;;;;19.87;96.43;99361.35;5077967;56;1139207;-71
2023/07/02 01:33:43;;;;;;;6.25;3.67;;;;;;;19.84;96.64;99357.77;5033910;56;1136629;-72
2023/07/02 01:38:49;;;;;;;7.33;3.05;;;;;;;19.85;97.04;99352.70;5055688;56;1136677;-76
2023/07/02 01:43:54;;;;;;;8.20;3.10;;;;;;;19.84;97.52;99350.23;5064899;56;1136663;-74
2023/07/02 01:49:00;;;;;;;9.88;3.55;;;;;;;19.77;99.02;99348.88;5088712;56;1136790;-72
2023/07/02 01:54:06;;;;;;;11.73;3.10;;;;;;;19.68;100.00;99343.94;4978872;57;1136998;-74
2023/07/02 01:59:11;;;;;;;3.74;2.60;;;;;;;19.63;99.85;99335.16;5022866;57;1141065;-77
2023/07/02 02:04:17;;;;;;;2.65;2.45;;;;;;;19.67;100.00;99329.70;5103304;56;1136758;-71
2023/07/02 02:09:23;;;;;;;6.67;3.17;;;;;;;19.70;100.00;99334.66;5119381;56;1138743;-74
2023/07/02 02:14:29;;;;;;;3.12;2.83;;;;;;;19.63;100.00;99336.50;5119018;56;1138883;-69
2023/07/02 02:19:35;;;;;;;8.13;2.47;;;;;;;19.53;100.00;99337.44;5119535;56;1139191;-75
2023/07/02 02:24:41;;;;;;;2.16;1.92;;;;;;;19.48;100.00;99346.56;5071679;56;1138824;-69
2023/07/02 02:29:47;;;;;;;3.72;2.10;;;;;;;19.36;100.00;99340.98;4927797;57;1139223;-74
2023/07/02 02:34:52;;;;;;;4.58;1.82;;;;;;;19.27;100.00;99344.87;4940817;58;1138890;-74
2023/07/02 02:39:58;;;;;;;5.53;2.20;;;;;;;19.23;100.00;99343.14;4918051;58;1138661;-76
2023/07/02 02:45:05;;;;;;;3.60;1.90;;;;;;;19.18;100.00;99346.11;4860335;59;1138820;-76
2023/07/02 02:50:14;;;;;;;4.28;1.72;;;;;;;19.15;100.00;99346.50;4944288;56;1138883;-74
2023/07/02 02:55:20;;;;;;;1.47;1.37;;;;;;;19.15;100.00;99347.84;4963767;57;1138870;-71
2023/07/02 03:00:26;;;;;;;7.62;1.67;;;;;;;19.08;100.00;99345.16;4940040;57;1138709;-72
2023/07/02 03:05:31;;;;;;;1.72;1.50;;;;;;;19.04;100.00;99349.78;4945610;57;1138936;-71
2023/07/02 03:10:38;;;;;;;1.90;1.37;;;;;;;18.95;100.00;99337.89;4953295;57;1138824;-75
2023/07/02 03:15:43;;;;;;;1.07;1.07;;;;;;;18.93;100.00;99331.11;4971576;58;1138666;-72
2023/07/02 03:20:49;;;;;;;4.20;1.15;;;;;;;18.91;100.00;99333.16;4970288;56;1138898;-73
2023/07/02 03:25:55;;;;;;;1.22;1.12;;;;;;;18.88;100.00;99338.91;5060553;56;1138848;-74
2023/07/02 03:31:01;;;;;;;3.60;1.27;;;;;;;18.86;100.00;99336.44;5086244;56;1139031;-70
2023/07/02 03:36:06;;;;;;;2.10;1.15;;;;;;;18.82;100.00;99348.56;5044089;56;1138762;-72
2023/07/02 03:41:12;;;;;;;3.75;1.17;;;;;;;18.74;100.00;99339.89;5053823;56;1139020;-74
2023/07/02 03:46:20;;;;;;;2.30;1.35;;;;;;;18.70;100.00;99339.46;5021953;56;1138822;-72
2023/07/02 03:51:25;;;;;;;2.12;1.22;;;;;;;18.72;100.00;99351.31;4961866;57;1138888;-78
2023/07/02 03:56:30;;;;;;;0.98;0.98;;;;;;;18.68;100.00;99351.39;4966635;57;1138825;-73
2023/07/02 04:01:36;;;;;;;1.75;1.40;;;;;;;18.75;100.00;99349.58;4998540;57;1138824;-70
2023/07/02 04:06:41;;;;;;;4.12;1.85;;;;;;;18.74;100.00;99346.59;4983739;57;1138974;-72
2023/07/02 04:11:47;;;;;;;1.52;1.07;;;;;;;18.73;100.00;99347.62;5045808;57;1138813;-73
2023/07/02 04:16:52;;;;;;;2.40;1.20;;;;;;;18.74;100.00;99350.09;5062541;56;1139054;-74
2023/07/02 04:21:58;;;;;;;3.12;1.10;;;;;;;18.70;100.00;99362.73;5036096;56;1138804;-72
2023/07/02 04:27:04;;;;;;;3.50;1.00;;;;;;;18.58;100.00;99364.66;5035901;56;1138879;-73
2023/07/02 04:32:10;;;;;;;1.20;1.02;;;;;;;18.48;100.00;99378.89;5055077;57;1138905;-74
2023/07/02 04:37:15;;;;;;;2.25;1.50;;;;;;;18.33;100.00;99392.91;5035448;57;1138864;-75
2023/07/02 04:42:21;;;;;;;2.75;1.10;;;;;;;18.19;100.00;99400.50;5035440;56;1139034;-75
2023/07/02 04:47:27;;;;;;;2.80;0.90;;;;;;;18.04;100.00;99395.77;5034171;57;1138920;-74
2023/07/02 04:52:32;;;;;;;5.42;1.75;;;;;;;17.95;100.00;99398.28;5017319;56;1138692;-75
2023/07/02 04:57:38;;;;;;;1.60;1.50;;;;;;;17.91;100.00;99404.00;5120428;56;1138598;-71
2023/07/02 05:02:44;;;;;;;1.52;1.42;;;;;;;17.87;100.00;99418.78;4991310;56;1138861;-77
2023/07/02 05:07:49;;;;;;;1.42;1.32;;;;;;;17.89;100.00;99419.92;4980254;57;1139155;-71
2023/07/02 05:12:55;;;;;;;4.83;1.47;;;;;;;17.84;100.00;99413.02;4998205;56;1138993;-74
2023/07/02 05:18:00;;;;;;;8.24;1.20;;;;;;;17.83;100.00;99426.06;5038928;56;1138864;-74
2023/07/02 05:23:06;;;;;;;1.30;1.10;;;;;;;17.82;100.00;99429.76;5087362;56;1138766;-72
2023/07/02 05:28:12;;;;;;;3.57;2.50;;;;;;;17.78;100.00;99428.48;5035277;56;1138844;-68
2023/07/02 05:33:17;;;;;;;1.25;1.12;;;;;;;17.82;100.00;99433.27;5045326;56;1139106;-73
2023/07/02 05:38:24;;;;;;;1.65;1.05;;;;;;;17.86;100.00;99443.91;5059908;56;1138835;-75
2023/07/02 05:43:29;;;;;;;0.80;0.80;;;;;;;17.90;100.00;99447.00;4984140;57;1138943;-72
2023/07/02 05:48:35;;;;;;;1.33;1.23;;;;;;;17.94;100.00;99452.29;4949503;57;1138868;-75
2023/07/02 05:53:41;;;;;;;1.02;0.92;;;;;;;17.92;100.00;99444.45;5011803;57;1138846;-73
2023/07/02 05:58:50;;;;;;;5.05;1.32;;;;;;;17.90;100.00;99441.65;5143162;56;1138860;-75
2023/07/02 06:03:56;;;;;;;2.30;1.20;;;;;;;17.88;100.00;99445.84;5143391;56;1139119;-76
2023/07/02 06:09:02;;;;;;;1.25;1.22;;;;;;;17.92;100.00;99445.79;5113745;56;1138907;-73
2023/07/02 06:14:08;;;;;;;1.70;1.40;;;;;;;17.99;100.00;99447.20;5088207;56;1138774;-72
2023/07/02 06:19:14;;;;;;;1.65;1.55;;;;;;;18.04;100.00;99459.98;5066593;56;1139087;-76
2023/07/02 06:24:20;;;;;;;9.60;1.75;;;;;;;18.12;100.00;99462.53;5077545;57;1138831;-74
2023/07/02 06:29:28;;;;;;;1.70;1.60;;;;;;;18.23;100.00;99468.69;5058317;56;1139069;-76
2023/07/02 06:34:33;;;;;;;2.17;1.37;;;;;;;18.32;100.00;99470.73;5047519;56;1139227;-73
2023/07/02 06:39:39;;;;;;;1.55;1.40;;;;;;;18.42;100.00;99473.38;4890544;58;1139033;-75
2023/07/02 06:44:44;;;;;;;1.62;1.52;;;;;;;18.64;100.00;99471.48;4948445;57;1139067;-75
2023/07/02 06:49:50;;;;;;;1.27;1.13;;;;;;;18.81;100.00;99469.31;5083619;56;1142149;-75
2023/07/02 06:54:56;;;;;;;3.03;1.30;;;;;;;18.85;100.00;99470.58;4930194;57;1138994;-78
2023/07/02 07:00:03;;;;;;;1.87;1.20;;;;;;;18.85;100.00;99466.05;4874402;57;1139101;-72
2023/07/02 07:05:09;;;;;;;2.33;1.35;;;;;;;18.81;100.00;99484.05;4996318;56;1138861;-76
2023/07/02 07:10:15;;;;;;;2.02;1.30;;;;;;;18.72;100.00;99482.56;5062101;56;1138812;-78
2023/07/02 07:15:20;;;;;;;6.80;1.37;;;;;;;18.70;100.00;99489.45;5057756;56;1138968;-79
2023/07/02 07:20:26;;;;;;;3.80;1.50;;;;;;;18.73;100.00;99486.90;5025814;57;1138622;-72
2023/07/02 07:25:32;;;;;;;2.17;2.00;;;;;;;18.97;100.00;99493.11;5107063;56;1139135;-75
2023/07/02 07:30:37;;;;;;;1.42;1.25;;;;;;;18.98;100.00;99493.42;5162213;56;1138837;-74
2023/07/02 07:35:43;;;;;;;4.44;1.40;;;;;;;18.71;100.00;99499.14;5146882;56;1139126;-76
2023/07/02 07:40:49;;;;;;;3.80;1.93;;;;;;;18.61;100.00;99504.03;5050886;56;1147033;-73
2023/07/02 07:45:54;;;;;;;1.50;1.40;;;;;;;18.64;100.00;99500.94;5007572;57;1138921;-73
2023/07/02 07:51:00;;;;;;;1.52;1.27;;;;;;;18.82;100.00;99509.81;4960975;57;1139251;-73
2023/07/02 07:56:06;;;;;;;3.95;1.32;;;;;;;18.82;100.00;99509.81;5033293;56;1138945;-76
2023/07/02 08:01:12;;;;;;;2.37;1.55;;;;;;;18.83;100.00;99508.28;5058988;56;1138650;-75
2023/07/02 08:06:18;;;;;;;1.50;1.40;;;;;;;19.25;100.00;99510.45;5020920;55;1138923;-73
2023/07/02 08:11:23;;;;;;;1.65;1.55;;;;;;;19.53;100.00;99506.39;5107614;55;1138641;-76
2023/07/02 08:16:29;;;;;;;3.92;1.50;;;;;;;19.71;100.00;99505.29;5069657;55;1138708;-76
2023/07/02 08:21:34;;;;;;;4.12;1.60;;;;;;;19.78;100.00;99517.39;5248947;55;1138798;-76
2023/07/02 08:26:40;;;;;;;2.80;1.62;;;;;;;19.96;100.00;99517.64;5056429;55;1138875;-77
2023/07/02 08:31:46;;;;;;;3.50;1.72;;;;;;;20.00;100.00;99522.92;5099029;56;1139072;-74
2023/07/02 08:36:51;;;;;;;7.03;1.67;;;;;;;20.18;100.00;99531.70;5128794;56;1139115;-75
2023/07/02 08:41:57;;;;;;;1.82;1.70;;;;;;;20.25;100.00;99528.52;5034682;57;1138959;-76
2023/07/02 08:47:03;;;;;;;5.00;1.50;;;;;;;20.44;100.00;99534.45;5079916;56;1138979;-72
2023/07/02 08:52:09;;;;;;;1.92;1.77;;;;;;;20.59;100.00;99531.04;5145523;56;1139066;-72
2023/07/02 08:57:15;;;;;;;2.15;1.75;;;;;;;20.75;100.00;99532.99;5112919;56;1138865;-75
2023/07/02 09:02:29;;;;;;;1.95;1.80;;;;;;;20.89;100.00;99527.38;5067240;56;1139094;-77
2023/07/02 09:07:47;;;;;;;2.87;2.00;;;;;;;20.95;100.00;99536.45;5015357;56;1138818;-76
2023/07/02 09:12:54;;;;;;;1.50;1.40;;;;;;;21.06;100.00;99535.83;5057121;56;1138743;-75
2023/07/02 09:18:00;;;;;;;3.50;2.05;;;;;;;21.27;100.00;99536.09;5041372;56;1139051;-73
2023/07/02 09:23:06;;;;;;;3.98;1.80;;;;;;;21.27;100.00;99531.54;5043084;56;1138943;-73
2023/07/02 09:28:21;;;;;;;14.53;2.58;;;;;;;21.34;100.00;99513.53;5062747;56;1139092;-73
2023/07/02 09:33:29;;;;;;;1.70;1.60;;;;;;;21.57;100.00;99514.86;5042608;56;1141174;-75
2023/07/02 09:38:35;;;;;;;2.50;1.47;;;;;;;21.72;98.09;99528.86;5043395;56;1139027;-73
2023/07/02 09:43:41;;;;;;;1.77;1.65;;;;;;;21.84;87.26;99527.16;5146736;56;1136869;-72
2023/07/02 09:48:47;;;;;;;2.62;2.08;;;;;;;22.03;75.81;99522.18;5127869;55;1136714;-72
2023/07/02 09:53:53;;;;;;;4.12;2.50;;;;;;;22.13;72.60;99523.59;5108464;56;1136735;-73
2023/07/02 09:58:58;;;;;;;4.22;1.82;;;;;;;22.22;70.48;99526.31;5058656;57;1136930;-75
2023/07/02 10:04:18;;;;;;;3.33;1.40;;;;;;;22.12;72.19;99533.53;5055066;57;1136937;-74
2023/07/02 10:09:43;;;;;;;1.70;1.60;;;;;;;22.16;68.26;99523.95;5093977;57;1136676;-73
2023/07/02 10:14:58;;;;;;;1.80;1.55;;;;;;;22.31;67.85;99517.72;5072454;57;1136775;-72
2023/07/02 10:20:11;;;;;;;5.00;1.37;;;;;;;22.21;70.83;99526.83;5058726;57;1136965;-70
2023/07/02 10:25:30;;;;;;;2.17;1.60;;;;;;;22.34;69.21;99519.98;5088862;57;1136826;-73
2023/07/02 10:30:38;;;;;;;6.50;1.62;;;;;;;22.53;67.25;99517.35;5093874;56;1136624;-74
2023/07/02 10:35:49;;;;;;;1.27;1.20;;;;;;;22.43;68.32;99521.91;5094209;57;1136980;-72
2023/07/02 10:41:01;;;;;;;7.62;2.15;;;;;;;22.57;68.49;99520.74;5080864;57;1136912;-72
2023/07/02 10:46:07;;;;;;;5.67;1.77;;;;;;;22.87;68.87;99514.69;5066035;56;1136818;-74
2023/07/02 10:51:15;;;;;;;3.72;1.65;;;;;;;22.78;67.47;99533.83;5044852;56;1136936;-75
2023/07/02 10:56:21;;;;;;;1.15;1.07;;;;;;;22.74;63.77;99527.22;4991482;57;1136821;-73
2023/07/02 11:01:32;;;;;;;2.42;1.67;;;;;;;22.80;63.80;99529.05;4959025;58;1136896;-72
2023/07/02 11:06:38;;;;;;;1.47;1.37;;;;;;;22.61;63.38;99535.95;4959329;57;1136561;-76
2023/07/02 11:12:01;;;;;;;3.05;1.52;;;;;;;22.52;64.71;99532.70;4958934;57;1136882;-72
2023/07/02 11:17:08;;;;;;;1.40;1.30;;;;;;;22.85;63.96;99531.08;4978757;56;1136839;-72
2023/07/02 11:22:14;;;;;;;2.87;1.72;;;;;;;23.21;65.07;99518.68;4958959;57;1137036;-71
2023/07/02 11:27:25;;;;;;;1.90;1.32;;;;;;;23.20;62.38;99525.95;4959183;57;1137049;-76
2023/07/02 11:32:31;;;;;;;2.03;1.83;;;;;;;23.13;66.29;99522.48;5008256;56;1136765;-73
2023/07/02 11:37:36;;;;;;;5.17;1.55;;;;;;;23.20;62.82;99523.77;5064514;57;1136664;-72
2023/07/02 11:42:43;;;;;;;7.80;2.72;;;;;;;23.45;66.09;99513.70;5053598;57;1136812;-74
2023/07/02 11:47:49;;;;;;;8.25;1.87;;;;;;;23.44;62.26;99552.53;5053437;57;1136828;-76
2023/07/02 11:52:55;;;;;;;4.28;2.00;;;;;;;23.41;60.95;99536.78;5070821;56;1136619;-71
2023/07/02 11:58:00;;;;;;;2.85;1.72;;;;;;;23.26;60.05;99539.04;5038861;57;1136702;-72
2023/07/02 12:03:06;;;;;;;3.80;2.00;;;;;;;23.07;59.83;99543.08;5054079;57;1136755;-75
2023/07/02 12:08:12;;;;;;;2.77;1.98;;;;;;;22.98;61.73;99549.00;5073790;57;1136628;-70
2023/07/02 12:13:17;;;;;;;2.33;2.00;;;;;;;22.65;62.14;99562.75;5053533;57;1137072;-76
2023/07/02 12:18:23;;;;;;;4.96;2.04;;;;;;;22.80;64.75;99570.83;5053706;57;1137167;-71
2023/07/02 12:23:28;;;;;;;5.03;1.60;;;;;;;22.90;64.45;99566.30;5053614;56;1136875;-72
2023/07/02 12:28:34;;;;;;;11.08;2.22;;;;;;;23.00;65.69;99561.73;5073571;57;1136926;-73
2023/07/02 12:33:40;;;;;;;3.42;2.15;;;;;;;23.22;64.40;99562.94;5063824;56;1139032;-74
2023/07/02 12:38:46;;;;;;;2.27;2.08;;;;;;;23.07;64.97;99584.88;5039229;57;1137085;-71
2023/07/02 12:43:51;;;;;;;5.28;2.08;;;;;;;23.15;64.46;99589.18;5011809;57;1136612;-73
2023/07/02 12:48:57;;;;;;;3.37;1.57;;;;;;;23.44;65.10;99572.77;4956258;57;1136728;-71
2023/07/02 12:54:02;;;;;;;8.60;2.40;;;;;;;23.54;62.58;99589.28;4952607;58;1136851;-75
2023/07/02 12:59:08;;;;;;;2.77;1.80;;;;;;;23.50;62.49;99593.48;4952527;58;1136670;-72
2023/07/02 13:04:15;;;;;;;9.48;2.35;;;;;;;23.43;60.87;99582.74;4959660;57;1136773;-72
2023/07/02 13:09:20;;;;;;;2.98;2.05;;;;;;;23.29;59.17;99602.00;4943190;57;1136614;-71
2023/07/02 13:14:26;;;;;;;4.15;1.60;;;;;;;22.99;59.24;99598.67;4988681;57;1136707;-75
2023/07/02 13:19:32;;;;;;;6.53;1.92;;;;;;;22.77;58.65;99600.92;5000218;56;1136789;-74
2023/07/02 13:24:40;;;;;;;2.98;1.52;;;;;;;22.63;60.36;99601.22;5080530;55;1137081;-74
2023/07/02 13:29:45;;;;;;;2.30;1.80;;;;;;;22.57;61.33;99606.16;5118128;55;1136616;-70
2023/07/02 13:34:52;;;;;;;6.30;1.95;;;;;;;22.57;61.99;99607.51;5111325;56;1136570;-72
2023/07/02 13:39:57;;;;;;;4.80;1.82;;;;;;;22.84;63.02;99608.97;5110538;55;1136924;-72
2023/07/02 13:45:03;;;;;;;7.78;2.35;;;;;;;22.85;59.25;99606.58;5131152;56;1137092;-75
2023/07/02 13:50:09;;;;;;;10.18;2.42;;;;;;;22.81;57.43;99606.70;5110939;56;1136734;-73
2023/07/02 13:55:14;;;;;;;6.58;2.47;;;;;;;22.78;57.73;99612.02;5162782;55;1138608;-73
2023/07/02 14:00:20;;;;;;;15.05;3.00;;;;;;;22.82;56.06;99609.70;5102569;55;1136707;-71
2023/07/02 14:05:26;;;;;;;11.18;2.80;;;;;;;23.04;57.72;99619.59;5035355;56;1138999;-72
2023/07/02 14:10:31;;;;;;;5.17;2.98;;;;;;;23.21;54.77;99607.70;5035746;55;1138923;-72
2023/07/02 14:15:37;;;;;;;6.05;2.52;;;;;;;23.29;55.12;99620.89;5036041;56;1137063;-73
2023/07/02 14:20:43;;;;;;;13.38;3.40;;;;;;;23.09;56.34;99618.38;4960646;57;1136770;-75
2023/07/02 14:25:48;;;;;;;5.33;3.10;;;;;;;22.96;56.69;99626.59;4974682;57;1138661;-72
2023/07/02 14:31:03;;;;;;;4.17;2.95;;;;;;;22.90;56.40;99622.10;5022837;56;1136627;-72
2023/07/02 14:36:09;;;;;;;9.30;3.72;;;;;;;23.05;56.40;99633.38;5067998;56;1137028;-73
2023/07/02 14:41:15;;;;;;;13.18;3.70;;;;;;;23.12;55.33;99637.65;4990171;57;1136977;-75
2023/07/02 14:46:22;;;;;;;8.33;3.60;;;;;;;23.07;56.13;99632.08;5042803;57;1139061;-73
2023/07/02 14:51:27;;;;;;;6.92;3.98;;;;;;;23.14;57.19;99634.21;5062736;57;1136770;-77
2023/07/02 14:56:35;;;;;;;11.08;4.20;;;;;;;23.32;54.24;99634.77;5042018;57;1136880;-74
2023/07/02 15:01:41;;;;;;;8.10;4.05;;;;;;;23.30;55.03;99636.03;5040429;56;1139079;-73
2023/07/02 15:06:47;;;;;;;8.33;4.08;;;;;;;23.17;54.52;99634.30;5059231;57;1137013;-74
2023/07/02 15:11:54;;;;;;;11.20;4.85;;;;;;;22.90;54.65;99647.20;5035093;56;1137046;-77
2023/07/02 15:16:59;;;;;;;7.27;4.73;;;;;;;22.70;56.31;99651.36;5053897;57;1139091;-76
2023/07/02 15:22:05;;;;;;;12.20;4.60;;;;;;;22.67;57.49;99657.70;5068097;56;1136836;-75
2023/07/02 15:27:11;;;;;;;15.60;4.05;;;;;;;22.61;56.87;99649.95;5027123;57;1138822;-71
2023/07/02 15:32:17;;;;;;;7.50;3.80;;;;;;;22.45;57.77;99656.72;5042272;57;1138988;-75
2023/07/02 15:37:22;;;;;;;7.67;4.40;;;;;;;22.57;58.09;99647.93;5060393;57;1136848;-75
2023/07/02 15:42:29;;;;;;;13.00;4.40;;;;;;;22.64;57.79;99661.66;4960789;57;1136592;-73
2023/07/02 15:47:35;;;;;;;9.55;4.50;;;;;;;22.72;57.76;99649.80;5029604;56;1138713;-78
2023/07/02 15:52:41;;;;;;;10.10;4.70;;;;;;;22.89;59.43;99646.89;5035693;56;1137154;-73
2023/07/02 15:57:47;;;;;;;8.03;4.03;;;;;;;22.85;56.89;99659.67;4976874;57;1139045;-73
2023/07/02 16:02:53;;;;;;;9.25;3.95;;;;;;;22.89;55.09;99652.81;4961562;57;1137027;-71
2023/07/02 16:07:59;;;;;;;18.00;5.37;;;;;;;22.82;55.54;99651.50;4919355;57;1136734;-72
2023/07/02 16:13:04;;;;;;;10.18;4.80;;;;;;;22.78;56.99;99664.59;4980418;57;1139083;-77
2023/07/02 16:18:10;;;;;;;9.98;5.35;;;;;;;22.97;56.65;99671.39;4961961;57;1139014;-76
2023/07/02 16:23:16;;;;;;;9.45;4.67;;;;;;;22.99;57.33;99672.84;4960558;57;1137002;-74
2023/07/02 16:28:22;;;;;;;13.20;5.80;;;;;;;22.94;56.63;99669.96;5018471;56;1136909;-76
2023/07/02 16:33:32;;;;;;;14.93;5.85;;;;;;;22.88;58.58;99677.59;4962086;56;1138914;-77
2023/07/02 16:38:35;;;;;;;13.53;5.47;;;;;;;22.90;59.05;99676.86;5056351;56;1138668;-74
2023/07/02 16:43:41;;;;;;;12.60;5.05;;;;;;;22.99;58.95;99693.06;5134424;55;1138908;-75
2023/07/02 16:48:46;;;;;;;10.43;4.70;;;;;;;22.82;53.58;99687.89;5072353;56;1138907;-76
2023/07/02 16:53:52;;;;;;;17.27;5.95;;;;;;;22.55;53.62;99694.48;5053890;56;1159724;-76
2023/07/02 16:58:57;;;;;;;17.50;5.50;;;;;;;22.44;52.67;99707.61;5103612;55;1139174;-71
2023/07/02 17:04:03;;;;;;;17.48;6.12;;;;;;;22.36;49.03;99707.84;5164079;55;1138976;-70
2023/07/02 17:09:25;;;;;;;13.20;5.77;;;;;;;22.27;48.60;99711.84;5143806;55;1138896;-71
2023/07/02 17:14:36;;;;;;;11.05;5.80;;;;;;;22.14;49.93;99713.25;5084025;55;1138815;-71
2023/07/02 17:19:50;;;;;;;14.00;5.55;;;;;;;22.04;49.59;99724.97;5084173;56;1138856;-71
2023/07/02 17:24:58;;;;;;;12.90;6.30;;;;;;;21.94;48.21;99732.13;5120886;55;1138744;-73
2023/07/02 17:30:07;;;;;;;13.70;5.90;;;;;;;21.92;48.46;99733.38;5143556;56;1138855;-70
2023/07/02 17:35:14;;;;;;;10.93;5.17;;;;;;;21.91;48.04;99736.58;5142797;56;1139084;-74
2023/07/02 17:40:20;;;;;;;13.90;6.22;;;;;;;21.87;48.22;99738.55;5162973;56;1139045;-73
2023/07/02 17:45:26;;;;;;;13.88;6.28;;;;;;;21.82;49.27;99743.77;5081657;55;1138926;-73
2023/07/02 17:50:32;;;;;;;16.02;6.35;;;;;;;21.74;49.51;99744.28;5123652;56;1139148;-70
2023/07/02 17:55:37;;;;;;;11.93;6.43;;;;;;;21.62;49.07;99747.83;5079340;56;1138809;-72
2023/07/02 18:00:43;;;;;;;15.40;6.85;;;;;;;21.52;50.19;99748.78;5077847;55;1138683;-75
2023/07/02 18:05:48;;;;;;;15.23;6.37;;;;;;;21.45;50.05;99747.94;5052292;55;1138769;-72
2023/07/02 18:10:57;;;;;;;13.34;6.18;;;;;;;21.44;51.14;99750.32;5068752;56;1138755;-74
2023/07/02 18:16:02;;;;;;;13.25;6.25;;;;;;;21.38;51.08;99760.07;5077748;56;1139032;-73
2023/07/02 18:21:08;;;;;;;15.93;6.97;;;;;;;21.26;51.24;99760.36;5031644;56;1138937;-72
2023/07/02 18:26:13;;;;;;;14.58;6.05;;;;;;;21.16;52.05;99767.98;5042132;56;1138851;-71
2023/07/02 18:31:19;;;;;;;12.90;6.90;;;;;;;21.05;52.00;99773.46;5071863;55;1139159;-77
2023/07/02 18:36:25;;;;;;;14.00;6.05;;;;;;;20.96;52.65;99774.16;5027120;55;1138942;-76
2023/07/02 18:41:32;;;;;;;16.15;5.55;;;;;;;20.87;53.07;99779.94;5100378;56;1139019;-76
2023/07/02 18:46:37;;;;;;;11.33;5.27;;;;;;;20.71;53.44;99781.14;5067964;56;1138872;-70
2023/07/02 18:51:43;;;;;;;13.30;5.97;;;;;;;20.60;53.63;99787.94;5122183;56;1138864;-74
2023/07/02 18:56:48;;;;;;;13.58;6.35;;;;;;;20.51;54.21;99794.50;5123379;56;1138636;-72
2023/07/02 19:01:54;;;;;;;14.20;7.10;;;;;;;20.42;54.06;99801.08;4973482;56;1138996;-71
2023/07/02 19:07:02;;;;;;;13.58;6.45;;;;;;;20.32;54.38;99801.91;5077473;55;1138883;-73
2023/07/02 19:12:09;;;;;;;15.25;6.22;;;;;;;20.19;54.08;99816.63;5057700;55;1138652;-74
2023/07/02 19:17:17;;;;;;;15.20;6.80;;;;;;;20.09;54.59;99818.84;5068837;56;1138794;-74
2023/07/02 19:22:23;;;;;;;15.55;6.65;;;;;;;20.00;55.01;99827.58;5160987;56;1138762;-70
2023/07/02 19:27:29;;;;;;;12.20;5.75;;;;;;;19.93;55.36;99832.89;5138361;55;1138637;-72
2023/07/02 19:32:40;;;;;;;15.30;6.33;;;;;;;19.84;55.71;99834.59;5113945;55;1138890;-72
2023/07/02 19:37:42;;;;;;;14.03;6.42;;;;;;;19.78;56.20;99842.06;5116044;55;1138958;-73
2023/07/02 19:42:47;;;;;;;9.98;6.00;;;;;;;19.69;56.49;99845.41;5141581;55;1139194;-68
2023/07/02 19:47:53;;;;;;;12.30;6.65;;;;;;;19.56;56.75;99854.16;5091490;55;1137134;-73
2023/07/02 19:52:59;;;;;;;12.80;6.62;;;;;;;19.45;57.05;99861.87;5089221;55;1139068;-72
2023/07/02 19:58:04;;;;;;;10.03;6.22;;;;;;;19.33;57.19;99871.77;5114685;55;1138829;-75
2023/07/02 20:03:11;;;;;;;19.93;6.43;;;;;;;19.25;57.20;99869.70;5169503;55;1138982;-75
2023/07/02 20:08:18;;;;;;;21.15;6.97;;;;;;;19.18;57.60;99872.34;5159277;55;1139285;-72
2023/07/02 20:13:24;;;;;;;19.15;6.60;;;;;;;19.11;57.67;99882.66;5152223;55;1138845;-72
2023/07/02 20:18:32;;;;;;;14.93;7.37;;;;;;;18.97;57.83;99892.40;5104239;56;1138943;-75
2023/07/02 20:23:36;;;;;;;21.63;7.30;;;;;;;18.85;58.32;99896.59;5068577;56;1138908;-77
2023/07/02 20:28:42;;;;;;;15.98;7.20;;;;;;;18.72;58.82;99905.80;5128159;56;1138835;-76
2023/07/02 20:33:48;;;;;;;11.68;6.00;;;;;;;18.58;59.37;99904.77;5195658;55;1138626;-71
2023/07/02 20:38:54;;;;;;;12.68;6.05;;;;;;;18.49;59.84;99902.67;5137175;55;1138575;-72
2023/07/02 20:44:03;;;;;;;19.20;7.60;;;;;;;18.44;60.22;99907.77;5187683;55;1138816;-72
2023/07/02 20:49:12;;;;;;;15.18;5.70;;;;;;;18.34;60.41;99907.19;5198334;55;1138980;-75
2023/07/02 20:54:18;;;;;;;14.83;7.10;;;;;;;18.30;60.87;99915.30;5172227;55;1138512;-71
2023/07/02 20:59:24;;;;;;;15.55;6.72;;;;;;;18.22;61.21;99914.85;5153732;56;1138706;-78
2023/07/02 21:04:29;;;;;;;17.37;6.70;;;;;;;18.16;61.83;99915.60;5121027;56;1138646;-70
2023/07/02 21:09:36;;;;;;;13.93;7.28;;;;;;;18.10;62.10;99915.48;5138182;56;1138849;-75
2023/07/02 21:14:42;;;;;;;13.60;7.05;;;;;;;18.02;62.65;99922.27;5125718;56;1138814;-76
2023/07/02 21:19:48;;;;;;;12.15;6.85;;;;;;;17.91;63.22;99921.67;5066985;56;1138759;-73
2023/07/02 21:24:54;;;;;;;15.00;7.30;;;;;;;17.84;63.82;99927.94;5111370;54;1138609;-75
2023/07/02 21:29:59;;;;;;;16.62;7.28;;;;;;;17.75;64.35;99928.50;5121194;56;1138739;-74
2023/07/02 21:35:05;;;;;;;14.05;7.35;;;;;;;17.73;65.02;99933.19;5111693;54;1138746;-77
2023/07/02 21:40:11;;;;;;;17.07;6.53;;;;;;;17.71;65.62;99929.89;5157297;54;1138915;-77
2023/07/02 21:45:17;;;;;;;16.10;7.17;;;;;;;17.71;66.23;99933.06;5217746;55;1138944;-74
2023/07/02 21:50:22;;;;;;;11.78;6.92;;;;;;;17.69;66.63;99937.25;5202982;55;1138768;-75
2023/07/02 21:55:28;;;;;;;22.75;7.15;;;;;;;17.65;66.99;99949.31;5220418;55;1138993;-71
2023/07/02 22:00:34;;;;;;;19.12;6.95;;;;;;;17.62;67.36;99948.29;5220241;55;1139103;-73
2023/07/02 22:05:39;;;;;;;15.97;7.70;;;;;;;17.56;67.73;99953.87;5202743;55;1138768;-71
2023/07/02 22:10:45;;;;;;;15.20;6.47;;;;;;;17.50;68.16;99952.39;5127935;56;1139057;-72
2023/07/02 22:15:50;;;;;;;14.17;6.30;;;;;;;17.39;68.12;99955.48;5161018;55;1138842;-77
2023/07/02 22:20:56;;;;;;;17.57;7.73;;;;;;;17.28;68.47;99962.55;5163074;56;1138765;-72
2023/07/02 22:26:02;;;;;;;20.13;6.53;;;;;;;17.19;69.03;99959.09;5142878;56;1138751;-73
2023/07/02 22:31:07;;;;;;;12.76;6.56;;;;;;;17.15;69.47;99964.45;5143052;56;1148558;-74
2023/07/02 22:36:13;;;;;;;13.78;6.65;;;;;;;17.15;69.85;99962.61;5142564;56;1138971;-75
2023/07/02 22:41:18;;;;;;;15.23;7.05;;;;;;;17.12;70.48;99966.97;5088859;56;1138988;-78
2023/07/02 22:46:24;;;;;;;14.23;6.60;;;;;;;17.06;70.70;99966.84;5051434;56;1138919;-73
2023/07/02 22:51:31;;;;;;;14.63;6.93;;;;;;;16.99;71.06;99967.20;5052971;56;1139110;-74
2023/07/02 22:56:36;;;;;;;15.27;7.13;;;;;;;16.92;71.47;99965.73;5066142;56;1138828;-72
2023/07/02 23:01:43;;;;;;;13.53;6.67;;;;;;;16.88;72.13;99966.58;5064396;55;1138779;-75
2023/07/02 23:06:48;;;;;;;16.85;6.80;;;;;;;16.82;72.14;99965.09;5128898;55;1138831;-76
2023/07/02 23:11:54;;;;;;;18.23;7.27;;;;;;;16.69;71.83;99963.47;5149167;55;1138519;-72
2023/07/02 23:17:00;;;;;;;12.03;6.90;;;;;;;16.61;71.91;99967.48;5119419;55;1138878;-73
2023/07/02 23:22:05;;;;;;;19.87;7.37;;;;;;;16.50;72.34;99966.82;5129208;56;1138909;-72